North Conway, NH

3:58 AM EDT on April 28, 2015 (GMT -0400)
Eastern Slopes Regional | | Change Station
CLOSE
Current Station
Airport
Location: Fryeburg,
Elevation: 453 ft
Nearby Weather Stations

Elev 453 ft 43.99 °N, 70.95 °W | Updated 4 minutes ago

Overcast
Overcast
44 °F
Feels Like 40 °F
N
8
Wind Variable Wind from North

Today
High -- | Low -- °F
--% Chance of Precip.
Yesterday
High -- | Low -- °F
Precip. -- in
5:40 AM 7:43 PM
Waxing Gibbous, 71% visible
Pressure 29.72 in
Visibility 10.0 miles
Clouds Scattered Clouds 3600 ft
Overcast 4400 ft
Windchill 40 °F
Dew Point 33 °F
Humidity 65%
Rainfall 0.00 in
Snow Depth Not available.
UV 0 out of 12
Pollen 7.80 out of 12
Air Quality Not available.
Flu Activity Regional
METAR KIZG 280754Z AUTO 36007KT 10SM SCT036 OVC044 07/01 A2971 RMK AO2 RAB23E38 SLP063 P0000 T00670006

More Conditions Fewer Conditions

Pressure 29.72 in
Visibility 10.0 miles
Clouds Scattered Clouds 3600 ft
Overcast 4400 ft
Windchill 40 °F
Dew Point 33 °F
Humidity 65%
Rainfall 0.00 in
Snow Depth Not available.
UV 0 out of 12
Pollen 7.80 out of 12
Air Quality Not available.
Flu Activity Regional
METAR KIZG 280754Z AUTO 36007KT 10SM SCT036 OVC044 07/01 A2971 RMK AO2 RAB23E38 SLP063 P0000 T00670006

More Conditions Fewer Conditions

10-Day Weather Forecast

Almanac

Astronomy

Apr. 28, 2015 Rise Set
Actual Time
Civil Twilight
Nautical Twilight
Astronomical Twilight
Moon
Length of Visible Light
Length of Day
Tomorrow will be .
, % of the Moon is Illuminated

Today's Extremes

State Highs State Lows

Community

WunderPhotos

Upload Photos

1,817,596 photos uploaded!

WunderBlogs® & News

Nearby

Air Quality

  Air Quality AQ Index Pollutant
Not available.

Snow Depth

Station Depth Elevation

Earthquake Activity

City Distance Mag. Time & Date
Minimum magnitude displayed is 2.5.

Coastal Water Temperatures

Place Temperature

Stations

Nearby Weather Stations

Station Location Temp. Windchill Dew Point Humidity Wind Precip. Elev Updated Type